UUEE/SVO METAR and TAF weather

Enter ICAO airport designator
Station Type Date Time Source
UUEE METAR 2019/04/25 18:30 UTC NOAA

UUEE 251830Z 35002MPS CAVOK 19/04 Q1021 R24C/CLRD62 R24L/CLRD62 NOSIG


Station Type Date Time Source
UUEE Decoded METAR 2019/04/25 18:30 UTC NOAA

Moscow / Sheremet'Ye , Russia (UUEE) 55-59N 037-30E
Apr 25, 2019 - 02:30 PM EDT / 2019.04.25 1830 UTC
Wind: from the N (350 degrees) at 4 MPH (4 KT):0
Visibility: greater than 7 mile(s):0
Temperature: 66 F (19 C)
Dew Point: 39 F (4 C)
Relative Humidity: 37%
Pressure (altimeter): 30.15 in. Hg (1021 hPa)
ob: UUEE 251830Z 35002MPS CAVOK 19/04 Q1021 R24C/CLRD62 R24L/CLRD62 NOSIG
cycle: 18

Station Type Date Time Source
UUEE TAF 2019/04/25 18:21 UTC NOAA

TAF UUEE 251655Z 2518/2618 VRB01MPS CAVOK TX21/2613Z TN09/2603Z

Example: see airport list